Ana Sayfa
METAR-TAF:

METAR-TAF

Havaalanları :

Sierra Blanca Regional Airport

Ruidoso, New Mexico, Amerika Birleşik Devletleri

Enlem: 33-28N, Boylam: 105-32W, yükseklik: 2076 m

Güncel hava durumu gözlemi

Rapor saat 08:35 UTC de 16 dakika önce yapıldı.
Rüzgar batı/kuzeybatıdan 20 kt ve 32 kt'a kadar ani rüzgarlar
Sıcaklık 15°C
Nem 20%
Basınç 1017 hPa
Görüş mesafesi: 16.1 km
Açık gökyüzü

METAR: KSRR 260835Z AUTO 29020G32KT 10SM CLR 15/M08 A3003 RMK AO2

Saat: 02:51 (08:51 UTC)


TAF: eksik

4.000'den fazla havaalanı için hava durumu gözlemleri ve tahminleri (METAR ve TAF raporları).

Kullanılabilir istasyonlar harita üzerinde sarı ve kırmızı noktalarla gösterilir.

İstasyonun adını görmek için fareyi noktanın üzerinde gezdirin.

Sonrasında hava gözlem ve tahminlerini görmek için tıklayın.

Haritayı değiştirmek için: yaklaştırmak için siyah artı işaretli yeşil düğmeye ve uzaklaştırmak için de eksi işaretli düğmeye hızla tıklayın; bitişik haritalar için yeşil okları kullanın.


METAR-TAF: